Terminal Aerodrome Forecast
Issued by NWS Quad Cities IA IL

Home | Current Version | Previous Version | Text Only | Print | Product List | Glossary On
Versions: 1 2 3 4 5 6 7 8 9 10 11 12 13 14 15 16
000
FTUS43 KDVN 221700
TAFDBQ
TAF
KDBQ 221728Z 2218/2318 25012KT P6SM SCT025
      TEMPO 2218/2220 BKN025
     FM222200 29009KT P6SM BKN035
     FM230200 35008KT P6SM SCT050
     FM231300 04008KT P6SM SCT250=

USA.gov is the U.S. government's official web portal to all federal, state and local government web resources and services.